createdAt,value
2023-04-13T00:02:18.207Z,4.60
2023-04-13T00:04:48.920Z,4.70
2023-04-13T00:07:22.700Z,5.00
2023-04-13T00:09:54.110Z,4.20
2023-04-13T00:12:29.309Z,4.50
2023-04-13T00:14:58.820Z,4.37
2023-04-13T00:17:28.271Z,4.40
2023-04-13T00:20:03.499Z,4.63
2023-04-13T00:22:33.065Z,4.50
2023-04-13T00:25:02.985Z,4.83
2023-04-13T00:27:32.233Z,4.17
2023-04-13T00:30:02.719Z,4.53
2023-04-13T00:32:31.894Z,3.90
2023-04-13T00:35:02.379Z,3.90
2023-04-13T00:37:32.824Z,4.27
2023-04-13T00:40:04.456Z,3.30
2023-04-13T00:42:36.637Z,3.20
2023-04-13T00:45:08.264Z,4.17
2023-04-13T00:47:42.615Z,4.33
2023-04-13T00:50:11.777Z,4.73
2023-04-13T00:52:43.094Z,4.67
2023-04-13T00:55:14.946Z,5.50
2023-04-13T00:57:51.243Z,6.47
2023-04-13T01:00:22.003Z,4.90
2023-04-13T01:02:55.340Z,4.93
2023-04-13T01:05:29.063Z,4.60
2023-04-13T01:08:18.757Z,4.67
2023-04-13T01:11:09.916Z,4.17
2023-04-13T01:13:45.858Z,4.67
2023-04-13T01:16:20.831Z,4.50
2023-04-13T01:42:49.865Z,4.50
2023-04-13T01:45:28.891Z,4.83
2023-04-13T01:48:20.075Z,4.87
2023-04-13T01:50:54.916Z,4.30
2023-04-13T01:53:33.338Z,3.93
2023-04-13T01:56:05.401Z,4.07
2023-04-13T01:58:36.295Z,4.17
2023-04-13T02:01:10.053Z,4.27
2023-04-13T02:03:43.752Z,4.10
2023-04-13T02:06:13.165Z,4.20
2023-04-13T02:08:42.546Z,4.80
2023-04-13T02:11:15.077Z,4.40
2023-04-13T02:13:45.539Z,3.80
2023-04-13T02:16:16.004Z,3.63
2023-04-13T02:18:45.164Z,4.47
2023-04-13T02:21:20.026Z,3.47
2023-04-13T02:23:51.527Z,4.03
2023-04-13T02:26:23.502Z,3.37
2023-04-13T02:28:54.668Z,3.53
2023-04-13T02:31:23.986Z,3.67
2023-04-13T02:33:53.021Z,3.80
2023-04-13T02:36:25.150Z,3.43
2023-04-13T02:38:54.928Z,3.70
2023-04-13T02:41:25.572Z,4.03
2023-04-13T02:43:57.795Z,3.97
2023-04-13T02:46:29.362Z,4.33
2023-04-13T02:49:00.712Z,3.90
2023-04-13T02:51:29.800Z,3.43
2023-04-13T02:54:00.691Z,3.57
2023-04-13T02:56:35.201Z,3.90
2023-04-13T02:59:04.277Z,3.63
2023-04-13T03:01:33.304Z,3.63
2023-04-13T03:04:04.152Z,3.20
2023-04-13T03:06:44.670Z,3.03
2023-04-13T03:09:15.824Z,3.80
2023-04-13T03:11:46.348Z,3.53
2023-04-13T03:14:24.154Z,3.40
2023-04-13T03:16:54.568Z,3.70
2023-04-13T03:23:05.375Z,3.40
2023-04-13T03:25:34.534Z,4.07
2023-04-13T03:28:03.547Z,3.97
2023-04-13T03:30:34.014Z,4.17
2023-04-13T03:33:03.126Z,5.13
2023-04-13T03:35:32.142Z,4.17
2023-04-13T03:38:01.370Z,4.20
2023-04-13T03:40:30.422Z,4.37
2023-04-13T03:42:59.432Z,4.23
2023-04-13T03:45:37.316Z,5.03
2023-04-13T03:48:11.985Z,6.70
2023-04-13T03:50:44.860Z,9.33
2023-04-13T03:53:15.135Z,9.60
2023-04-13T03:55:48.414Z,8.90
2023-04-13T03:58:17.384Z,9.83
2023-04-13T04:00:49.901Z,10.03
2023-04-13T04:03:19.557Z,10.07
2023-04-13T04:05:48.879Z,10.80
2023-04-13T04:08:19.406Z,10.50
2023-04-13T04:11:00.605Z,10.20
2023-04-13T04:13:32.895Z,10.70
2023-04-13T04:16:03.741Z,11.30
2023-04-13T04:18:33.066Z,11.03
2023-04-13T04:21:07.181Z,11.50
2023-04-13T04:23:37.834Z,11.50
2023-04-13T04:26:07.757Z,10.83
2023-04-13T04:28:39.475Z,10.70
2023-04-13T04:31:14.259Z,11.00
2023-04-13T04:33:43.742Z,10.30
2023-04-13T04:36:14.438Z,8.07
2023-04-13T04:38:48.351Z,7.57
2023-04-13T04:41:18.919Z,8.50
2023-04-13T04:43:52.492Z,9.07
2023-04-13T04:46:25.323Z,9.20
2023-04-13T04:48:57.904Z,7.93
2023-04-13T05:00:46.691Z,7.87
2023-04-13T05:06:33.690Z,8.20
2023-04-13T05:09:26.395Z,9.37
2023-04-13T05:11:41.717Z,8.63
2023-04-13T05:14:13.881Z,10.03
2023-04-13T05:16:47.004Z,9.87
2023-04-13T05:19:16.585Z,11.07
2023-04-13T05:21:47.336Z,10.10
2023-04-13T05:24:16.458Z,12.07
2023-04-13T05:26:46.758Z,11.07
2023-04-13T05:29:15.659Z,10.53
2023-04-13T05:31:46.276Z,10.23
2023-04-13T05:34:17.020Z,7.90
2023-04-13T05:37:06.388Z,9.77
2023-04-13T05:39:39.279Z,7.87
2023-04-13T05:42:08.519Z,6.93
2023-04-13T05:44:37.660Z,6.43
2023-04-13T05:47:06.737Z,5.73
2023-04-13T05:49:35.832Z,5.60
2023-04-13T05:52:06.397Z,5.90
2023-04-13T05:54:35.826Z,5.90
2023-04-13T05:57:08.164Z,6.97
2023-04-13T05:59:40.087Z,5.07
2023-04-13T06:02:09.632Z,5.40
2023-04-13T06:04:39.142Z,5.13
2023-04-13T06:07:08.614Z,5.00
2023-04-13T06:09:39.686Z,5.40
2023-04-13T06:12:09.472Z,4.93
2023-04-13T06:14:38.918Z,5.90
2023-04-13T06:17:07.671Z,5.00
2023-04-13T06:19:42.644Z,6.00
2023-04-13T06:22:13.292Z,5.20
2023-04-13T06:31:15.240Z,6.27
2023-04-13T06:33:50.231Z,5.83
2023-04-13T06:39:34.343Z,6.00
2023-04-13T06:42:23.963Z,6.17
2023-04-13T06:54:36.332Z,5.30
2023-04-13T06:57:19.255Z,5.87
2023-04-13T07:09:36.920Z,7.17
2023-04-13T07:18:19.295Z,5.03
2023-04-13T07:27:54.357Z,5.10
2023-04-13T07:37:28.210Z,4.50
2023-04-13T08:21:16.337Z,4.87
2023-04-13T08:45:21.000Z,4.95
2023-04-13T08:47:59.316Z,5.33
2023-04-13T08:57:33.955Z,4.62
2023-04-13T09:00:09.322Z,4.83
2023-04-13T09:06:25.940Z,5.22
2023-04-13T09:08:59.679Z,5.30
2023-04-13T09:11:33.012Z,5.20
2023-04-13T09:14:11.454Z,5.30
2023-04-13T09:16:42.944Z,4.55
2023-04-13T09:22:14.709Z,5.53
2023-04-13T09:24:44.297Z,5.55
2023-04-13T09:27:22.007Z,5.87
2023-04-13T09:29:59.276Z,5.55
2023-04-13T09:32:29.431Z,5.45
2023-04-13T09:35:07.000Z,5.65
2023-04-13T09:44:06.722Z,6.47
2023-04-13T09:46:35.460Z,6.55
2023-04-13T09:49:06.303Z,5.90
2023-04-13T09:51:42.011Z,6.08
2023-04-13T09:54:12.793Z,6.20
2023-04-13T09:56:51.207Z,6.00
2023-04-13T09:59:30.444Z,6.00
2023-04-13T10:02:07.910Z,5.80
2023-04-13T10:04:36.705Z,5.22
2023-04-13T10:08:03.535Z,6.35
2023-04-13T10:09:47.887Z,5.03
2023-04-13T10:12:18.351Z,5.60
2023-04-13T10:14:49.297Z,4.70
2023-04-13T10:17:39.071Z,4.70
2023-04-13T10:20:13.810Z,4.78
2023-04-13T10:22:45.789Z,5.62
2023-04-13T10:25:29.630Z,5.30
2023-04-13T10:27:47.918Z,5.67
2023-04-13T10:30:19.906Z,5.15
2023-04-13T10:32:48.624Z,4.53
2023-04-13T10:35:18.367Z,4.80
2023-04-13T10:37:51.744Z,4.83
2023-04-13T10:44:13.543Z,4.30
2023-04-13T10:53:10.921Z,4.67
2023-04-13T10:55:44.300Z,4.45
2023-04-13T10:58:21.454Z,4.08
2023-04-13T11:00:57.740Z,3.90
2023-04-13T11:06:28.349Z,4.03
2023-04-13T11:09:07.938Z,3.92
2023-04-13T11:15:40.427Z,3.70
2023-04-13T11:18:14.059Z,4.22
2023-04-13T11:20:46.631Z,6.15
2023-04-13T11:23:17.802Z,4.58
2023-04-13T11:26:02.349Z,3.58
2023-04-13T11:29:12.762Z,3.42
2023-04-13T11:31:48.632Z,3.80
2023-04-13T11:38:40.461Z,3.92
2023-04-13T11:41:28.320Z,3.95
2023-04-13T11:44:07.264Z,3.83
2023-04-13T11:46:46.971Z,3.98
2023-04-13T11:49:16.960Z,4.12
2023-04-13T12:02:19.610Z,2.47
2023-04-13T12:08:26.033Z,2.65
2023-04-13T12:11:39.057Z,4.60
2023-04-13T12:13:53.803Z,1.95
2023-04-13T12:28:41.094Z,2.37
2023-04-13T12:31:14.716Z,2.10
2023-04-13T12:33:51.061Z,2.05
2023-04-13T12:36:23.634Z,1.90
2023-04-13T12:38:53.865Z,1.62
2023-04-13T12:41:25.401Z,2.00
2023-04-13T12:44:00.436Z,2.02
2023-04-13T12:46:32.783Z,2.35
2023-04-13T12:49:02.259Z,2.08
2023-04-13T12:51:37.965Z,3.33
2023-04-13T12:54:09.998Z,7.67
2023-04-13T12:56:41.908Z,4.97
2023-04-13T12:59:13.622Z,2.75
2023-04-13T13:01:45.548Z,2.27
2023-04-13T13:04:14.635Z,2.10
2023-04-13T13:06:43.654Z,2.10
2023-04-13T13:09:12.705Z,2.12
2023-04-13T13:11:42.177Z,1.90
2023-04-13T13:14:14.646Z,2.05
2023-04-13T13:16:50.968Z,2.30
2023-04-13T13:19:24.849Z,2.17
2023-04-13T13:21:56.433Z,2.45
2023-04-13T13:24:26.965Z,3.55
2023-04-13T13:35:10.919Z,5.53
2023-04-13T13:37:42.829Z,3.62
2023-04-13T13:40:13.527Z,2.70
2023-04-13T13:42:52.304Z,3.77
2023-04-13T13:45:17.901Z,3.02
2023-04-13T13:47:53.805Z,3.10
2023-04-13T13:50:23.127Z,3.02
2023-04-13T14:07:59.210Z,3.20
2023-04-13T14:21:51.406Z,2.90
2023-04-13T14:41:28.734Z,2.52
2023-04-13T14:47:21.514Z,2.33
2023-04-13T14:52:50.881Z,2.62
2023-04-13T14:55:23.149Z,2.47
2023-04-13T15:01:14.545Z,3.60
2023-04-13T15:17:41.944Z,2.80
2023-04-13T15:39:34.883Z,2.22
2023-04-13T15:45:55.432Z,2.30
2023-04-13T15:49:09.809Z,2.22
2023-04-13T15:51:33.439Z,1.80
2023-04-13T15:54:37.342Z,1.92
2023-04-13T15:57:06.232Z,2.60
2023-04-13T15:59:38.026Z,1.92
2023-04-13T16:02:12.606Z,2.00
2023-04-13T16:04:43.745Z,1.80
2023-04-13T16:07:14.931Z,1.80
2023-04-13T16:09:55.773Z,1.82
2023-04-13T16:12:28.852Z,1.70
2023-04-13T16:14:59.609Z,1.70
2023-04-13T16:17:32.947Z,2.00
2023-04-13T16:20:23.775Z,1.75
2023-04-13T16:22:54.058Z,1.50
2023-04-13T16:25:33.578Z,1.87
2023-04-13T16:28:05.646Z,1.57
2023-04-13T16:30:34.849Z,1.55
2023-04-13T16:33:08.679Z,4.05
2023-04-13T16:35:39.750Z,1.65
2023-04-13T16:38:08.804Z,1.90
2023-04-13T16:40:41.762Z,2.22
2023-04-13T16:43:10.700Z,3.20
2023-04-13T16:45:44.644Z,3.08
2023-04-13T16:48:13.536Z,2.92
2023-04-13T16:50:42.222Z,2.17
2023-04-13T16:53:11.929Z,2.22
2023-04-13T16:55:41.980Z,2.00
2023-04-13T16:58:12.454Z,2.02
2023-04-13T17:00:41.072Z,1.87
2023-04-13T17:03:13.627Z,2.22
2023-04-13T17:05:42.898Z,2.12
2023-04-13T17:08:11.798Z,1.90
2023-04-13T17:10:46.824Z,2.80
2023-04-13T17:13:11.490Z,2.27
2023-04-13T17:15:40.652Z,2.35
2023-04-13T17:18:09.688Z,2.08
2023-04-13T17:20:40.049Z,2.40
2023-04-13T17:23:32.865Z,2.25
2023-04-13T17:26:17.206Z,2.20
2023-04-13T17:29:03.891Z,3.22
2023-04-13T17:31:31.919Z,3.87
2023-04-13T17:34:08.450Z,3.87
2023-04-13T17:36:41.748Z,3.75
2023-04-13T17:49:02.427Z,3.90
2023-04-13T17:54:40.933Z,3.30
2023-04-13T18:00:05.137Z,31.17
2023-04-13T18:02:40.119Z,2.60
2023-04-13T18:05:44.206Z,2.90
2023-04-13T18:08:08.905Z,2.40
2023-04-13T18:10:43.025Z,3.10
2023-04-13T18:13:13.860Z,3.02
2023-04-13T18:15:51.699Z,2.67
2023-04-13T18:21:50.868Z,4.05
2023-04-13T18:24:26.844Z,14.68
2023-04-13T18:26:55.351Z,7.72
2023-04-13T18:32:26.033Z,5.90
2023-04-13T18:38:05.408Z,5.90
2023-04-13T18:42:20.240Z,5.85
2023-04-13T18:43:41.988Z,6.90
2023-04-13T18:46:13.745Z,7.12
2023-04-13T18:48:42.819Z,8.85
2023-04-13T18:51:22.195Z,8.40
2023-04-13T18:53:51.030Z,7.58
2023-04-13T18:56:19.956Z,7.37
2023-04-13T19:06:05.735Z,7.47
2023-04-13T19:08:45.328Z,8.40
2023-04-13T19:14:40.154Z,9.88
2023-04-13T19:17:11.547Z,9.65
2023-04-13T19:19:48.324Z,10.20
2023-04-13T19:22:20.226Z,10.15
2023-04-13T19:24:49.429Z,11.53
2023-04-13T19:27:20.564Z,11.15
2023-04-13T19:29:53.666Z,8.80
2023-04-13T19:32:23.461Z,9.20
2023-04-13T19:34:56.571Z,8.68
2023-04-13T19:38:04.344Z,16.85
2023-04-13T19:40:54.332Z,6.45
2023-04-13T19:43:44.628Z,10.00
2023-04-13T19:46:04.486Z,14.03
2023-04-13T19:48:33.422Z,23.07
2023-04-13T19:51:03.380Z,11.43
2023-04-13T19:53:38.237Z,8.28
2023-04-13T19:56:07.362Z,4.25
2023-04-13T19:58:39.344Z,6.80
2023-04-13T20:01:12.172Z,7.45
2023-04-13T20:03:43.814Z,3.33
2023-04-13T20:06:25.295Z,3.80
2023-04-13T20:09:03.103Z,3.87
2023-04-13T20:11:32.021Z,3.70
2023-04-13T20:14:03.494Z,3.52
2023-04-13T20:16:34.467Z,3.58
2023-04-13T20:19:07.103Z,4.75
2023-04-13T20:21:38.581Z,4.30
2023-04-13T20:24:07.827Z,4.30
2023-04-13T20:26:36.833Z,3.02
2023-04-13T20:29:06.197Z,3.72
2023-04-13T20:31:36.892Z,15.13
2023-04-13T20:34:07.506Z,5.75
2023-04-13T20:36:36.538Z,3.55
2023-04-13T20:39:08.404Z,3.72
2023-04-13T20:41:39.151Z,5.75
2023-04-13T20:44:13.419Z,3.40
2023-04-13T20:46:45.938Z,3.58
2023-04-13T20:49:18.670Z,4.83
2023-04-13T20:51:59.334Z,4.80
2023-04-13T20:54:35.860Z,4.05
2023-04-13T20:57:25.606Z,3.60
2023-04-13T20:59:57.127Z,5.37
2023-04-13T21:02:26.332Z,5.05
2023-04-13T21:04:56.865Z,3.40
2023-04-13T21:07:25.940Z,4.42
2023-04-13T21:09:55.036Z,6.25
2023-04-13T21:12:26.675Z,4.22
2023-04-13T21:14:57.965Z,4.30
2023-04-13T21:17:27.481Z,5.47
2023-04-13T21:19:57.687Z,4.78
2023-04-13T21:22:28.073Z,4.87
2023-04-13T21:25:03.160Z,6.12
2023-04-13T21:27:36.876Z,5.22
2023-04-13T21:30:08.406Z,5.30
2023-04-13T21:32:41.839Z,5.22
2023-04-13T21:35:19.780Z,5.35
2023-04-13T21:37:53.073Z,4.42
2023-04-13T21:40:19.425Z,5.15
2023-04-13T21:42:51.127Z,5.28
2023-04-13T21:45:19.980Z,6.03
2023-04-13T21:47:50.398Z,5.05
2023-04-13T21:50:19.491Z,5.28
2023-04-13T21:52:48.823Z,5.55
2023-04-13T21:55:23.121Z,5.17
2023-04-13T21:57:52.056Z,5.10
2023-04-13T22:00:21.015Z,5.37
2023-04-13T22:02:53.546Z,5.40
2023-04-13T22:05:24.394Z,5.37
2023-04-13T22:07:53.345Z,5.40
2023-04-13T22:10:22.373Z,5.83
2023-04-13T22:12:51.567Z,5.40
2023-04-13T22:15:20.659Z,5.28
2023-04-13T22:17:49.893Z,5.45
2023-04-13T22:20:20.313Z,5.00
2023-04-13T22:22:49.169Z,5.55
2023-04-13T22:25:18.060Z,5.30
2023-04-13T22:27:46.900Z,5.12
2023-04-13T22:30:16.157Z,5.87
2023-04-13T22:32:45.491Z,5.72
2023-04-13T22:35:14.636Z,5.83
2023-04-13T22:37:43.615Z,5.85
2023-04-13T22:40:15.402Z,5.50
2023-04-13T22:42:44.785Z,5.15
2023-04-13T22:45:14.169Z,5.33
2023-04-13T22:47:43.331Z,5.30
2023-04-13T22:50:12.505Z,5.17
2023-04-13T22:52:42.432Z,5.22
2023-04-13T22:55:11.802Z,5.08
2023-04-13T22:57:42.295Z,4.95
2023-04-13T23:00:12.765Z,4.85
2023-04-13T23:02:43.085Z,5.62
2023-04-13T23:05:14.547Z,5.65
2023-04-13T23:07:42.701Z,5.42
2023-04-13T23:10:15.269Z,5.87
2023-04-13T23:12:46.890Z,5.20
2023-04-13T23:15:16.247Z,5.47
2023-04-13T23:17:45.341Z,5.28
2023-04-13T23:20:14.587Z,4.70
2023-04-13T23:22:43.524Z,5.28
2023-04-13T23:25:13.948Z,5.72
2023-04-13T23:27:45.633Z,5.10
2023-04-13T23:30:16.486Z,6.37
2023-04-13T23:36:37.657Z,4.62
2023-04-13T23:39:06.595Z,4.62
2023-04-13T23:41:36.107Z,4.57
2023-04-13T23:44:05.098Z,5.33
2023-04-13T23:46:34.273Z,4.90
2023-04-13T23:49:07.915Z,4.58
2023-04-13T23:51:36.839Z,4.47
2023-04-13T23:54:15.132Z,5.25
2023-04-13T23:56:45.695Z,4.80
2023-04-13T23:59:14.873Z,4.92
